Latest Weather Observations for Hopetoun North

IDW60801

Issued at 7:35 pm WST Monday 21 April 2014 (issued every 30 minutes, with the page automatically refreshed every 10 minutes)

About weather observations | Map of weather stations | Latest weather observations for WA | Other Formats
Station Details ID: 009961 Name: HOPETOUN NORTH Lat: -33.93 Lon: 120.13 Height: 26.0 m
Data from the previous 72 hours. | See also: Recent months at Hopetoun North
Date/Time
WST
Temp
°C
App
Temp
°C
Dew
Point
Rel
Hum
%
Delta-T
°C
Wind Press
QNH
hPa
Press
MSL
hPa
Rain
since 9 am
mm
Dir
 
Spd
km/h
Gust
km/h
Spd
kts
Gust
kts
21/07:30pm - - - - - S 6 9 3 5 1020.9 - 0.0
21/07:00pm - - - - - S 11 15 6 8 1020.7 1020.6 0.0
21/06:30pm - - - - - S 11 17 6 9 1020.5 - 0.0
21/06:00pm - - - - - S 11 17 6 9 1019.9 1019.8 0.0
21/05:30pm - - - - - S 13 19 7 10 1019.6 - 0.0
21/05:00pm - - - - - S 13 19 7 10 1019.5 1019.4 0.0
21/04:30pm - - - - - S 11 19 6 10 1019.3 - 0.0
21/04:00pm - - - - - SSW 13 19 7 10 1019.2 1019.1 0.0
21/03:30pm - - - - - S 15 20 8 11 1018.9 - 0.0
21/03:00pm - - - - - S 17 24 9 13 1018.8 1018.7 0.0
21/02:30pm - - - - - SSW 24 32 13 17 1018.5 - 0.0
21/02:00pm - - - - - SSW 20 30 11 16 1018.4 1018.3 0.0
21/01:30pm - - - - - S 17 22 9 12 1018.2 - 0.0
21/01:00pm - - - - - SSW 17 26 9 14 1018.1 1018.0 0.0
21/12:30pm - - - - - SW 15 26 8 14 1018.2 - 0.0
21/12:00pm - - - - - SSW 17 24 9 13 1018.3 1018.2 0.0
21/11:30am - - - - - SSW 20 30 11 16 1018.5 - 0.0
21/11:00am - - - - - SSW 19 26 10 14 1018.7 1018.6 0.0
21/10:30am - - - - - S 19 24 10 13 1018.7 - 0.0
21/10:00am - - - - - SSW 19 26 10 14 1018.6 1018.5 0.0
21/09:30am - - - - - S 15 20 8 11 1018.4 - 0.0
21/09:00am - - - - - S 15 24 8 13 1018.2 1018.1 1.0
21/08:30am - - - - - NW 2 9 1 5 1018.1 - 1.0
21/08:00am - - - - - WNW 6 11 3 6 1017.8 1017.7 1.0
21/07:30am - - - - - S 9 17 5 9 1017.4 - 0.8
21/07:00am - - - - - S 11 15 6 8 1016.9 1016.8 0.8
21/06:30am - - - - - S 13 20 7 11 1016.6 - 0.8
21/06:00am - - - - - S 6 9 3 5 1016.3 1016.2 0.8
21/05:30am - - - - - S 11 15 6 8 1016.2 - 0.8
21/05:00am - - - - - SSW 15 20 8 11 1016.0 1015.9 0.8
21/04:30am - - - - - SSW 17 22 9 12 1015.7 - 0.8
21/04:00am - - - - - SSW 22 32 12 17 1015.5 1015.4 0.8
21/03:30am - - - - - SSW 9 13 5 7 1014.8 - 0.0
21/03:00am - - - - - SSW 11 17 6 9 1014.6 1014.6 0.0
21/02:30am - - - - - SSW 13 20 7 11 1014.4 - 0.0
21/02:00am - - - - - S 13 19 7 10 1014.4 1014.4 0.0
21/01:30am - - - - - SSW 17 22 9 12 1014.5 - 0.0
21/01:00am - - - - - SSW 13 19 7 10 1014.5 1014.5 0.0
21/12:30am - - - - - SSW 15 22 8 12 1014.6 - 0.0
21/12:00am - - - - - SSW 15 22 8 12 1014.3 1014.3 0.0
 
Date/Time
WST
Temp
°C
App
Temp
°C
Dew
Point
Rel
Hum
%
Delta-T
°C
Wind Press
QNH
hPa
Press
MSL
hPa
Rain
since 9 am
mm
Dir
 
Spd
km/h
Gust
km/h
Spd
kts
Gust
kts
20/11:30pm - - - - - SSW 15 22 8 12 1014.1 - 0.0
20/11:00pm - - - - - SSW 17 22 9 12 1013.9 1013.9 0.0
20/10:30pm - - - - - SSW 20 28 11 15 1014.5 - 0.0
20/10:00pm - - - - - SSW 24 30 13 16 1014.5 1014.5 0.0
20/09:30pm - - - - - SSW 24 30 13 16 1014.2 - 0.0
20/09:00pm - - - - - SSW 22 32 12 17 1014.1 1014.1 0.0
20/08:30pm - - - - - SSW 22 32 12 17 1014.0 - 0.0
20/08:00pm - - - - - SSW 20 32 11 17 1014.0 1014.0 0.0
20/07:30pm - - - - - SSW 22 30 12 16 1013.8 - 0.0
20/07:00pm - - - - - SSW 19 26 10 14 1014.0 1014.0 0.0
20/06:30pm - - - - - SSW 15 20 8 11 1013.8 - 0.0
20/06:00pm - - - - - SSW 15 20 8 11 1013.5 1013.5 0.0
20/05:30pm - - - - - SSW 19 24 10 13 1013.1 - 0.0
20/05:00pm - - - - - S 11 17 6 9 1012.9 1012.9 0.0
20/04:30pm - - - - - S 17 22 9 12 1012.7 - 0.0
20/04:00pm - - - - - S 17 22 9 12 1012.7 1012.7 0.0
20/03:30pm - - - - - S 17 26 9 14 1012.3 - 0.0
20/03:00pm - - - - - S 17 22 9 12 1012.4 1012.4 0.0
20/02:30pm - - - - - S 19 24 10 13 1012.2 - 0.0
20/02:00pm - - - - - S 15 26 8 14 1012.1 1012.1 0.0
20/01:30pm - - - - - S 15 22 8 12 1012.3 - 0.0
20/01:00pm - - - - - S 15 20 8 11 1012.4 1012.4 0.0
20/12:30pm - - - - - S 17 22 9 12 1012.7 - 0.0
20/12:00pm - - - - - S 17 24 9 13 1013.2 1013.2 0.0
20/11:30am - - - - - SSW 13 19 7 10 1013.6 - 0.0
20/11:00am - - - - - SSW 15 24 8 13 1013.7 1013.7 0.0
20/10:30am - - - - - SSW 7 11 4 6 1013.9 - 0.0
20/10:00am - - - - - SSW 7 13 4 7 1014.3 1014.3 0.0
20/09:30am - - - - - NW 4 11 2 6 1014.6 - 0.0
20/09:00am - - - - - NNE 4 6 2 3 1014.8 1014.8 0.0
20/08:30am - - - - - NW 2 4 1 2 1014.9 - 0.0
20/08:00am - - - - - CALM 0 0 0 0 1015.1 1015.1 0.0
20/07:30am - - - - - NW 2 4 1 2 1015.0 - 0.0
20/07:00am - - - - - NW 4 4 2 2 1014.9 1014.9 0.0
20/06:30am - - - - - NNW 4 6 2 3 1014.8 - 0.0
20/06:00am - - - - - NNW 4 6 2 3 1014.8 1014.8 0.0
20/05:30am - - - - - CALM 0 0 0 0 1014.6 - 0.0
20/05:00am - - - - - CALM 0 0 0 0 1014.7 1014.7 0.0
20/04:30am - - - - - CALM 0 0 0 0 1014.6 - 0.0
20/04:00am - - - - - N 4 7 2 4 1014.7 1014.7 0.0
20/03:30am - - - - - N 4 6 2 3 1014.9 - 0.0
20/03:00am - - - - - N 6 7 3 4 1014.9 1014.9 0.0
20/02:30am - - - - - N 4 7 2 4 1015.1 - 0.0
20/02:00am - - - - - E 6 7 3 4 1015.5 1015.4 0.0
20/01:30am - - - - - ESE 9 15 5 8 1015.7 - 0.0
20/01:00am - - - - - ESE 11 17 6 9 1015.7 1015.6 0.0
20/12:30am - - - - - SE 13 19 7 10 1015.8 - 0.0
20/12:00am - - - - - SE 11 19 6 10 1015.8 1015.7 0.0
 
Date/Time
WST
Temp
°C
App
Temp
°C
Dew
Point
Rel
Hum
%
Delta-T
°C
Wind Press
QNH
hPa
Press
MSL
hPa
Rain
since 9 am
mm
Dir
 
Spd
km/h
Gust
km/h
Spd
kts
Gust
kts
19/11:30pm - - - - - SE 11 13 6 7 1015.9 - 0.0
19/11:00pm - - - - - SE 11 15 6 8 1016.2 1016.1 0.0
19/10:30pm - - - - - SE 9 15 5 8 1016.7 - 0.0
19/10:00pm - - - - - SE 9 15 5 8 1016.8 1016.7 0.0
19/09:30pm - - - - - SSE 11 15 6 8 1016.9 - 0.0
19/09:00pm - - - - - SSE 13 19 7 10 1017.0 1016.9 0.0
19/08:30pm - - - - - SSE 13 20 7 11 1017.0 - 0.0
19/08:00pm - - - - - SSE 13 19 7 10 1017.0 1016.9 0.0
19/07:30pm - - - - - SSE 15 22 8 12 1016.9 - 0.0
19/07:00pm - - - - - SSE 17 26 9 14 1016.9 1016.8 0.0
19/06:30pm - - - - - S 15 22 8 12 1016.8 - 0.0
19/06:00pm - - - - - S 17 24 9 13 1016.7 1016.6 0.0
19/05:30pm - - - - - S 20 28 11 15 1016.5 - 0.0
19/05:00pm - - - - - S 20 28 11 15 1016.3 1016.2 0.0
19/04:30pm - - - - - S 22 33 12 18 1016.1 - 0.0
19/04:00pm - - - - - S 26 35 14 19 1015.9 1015.8 0.0
19/03:30pm - - - - - S 26 35 14 19 1016.0 - 0.0
19/03:00pm - - - - - S 20 24 11 13 1015.9 1015.8 0.0
19/02:30pm - - - - - S 20 26 11 14 1015.7 - 0.0
19/02:00pm - - - - - S 22 30 12 16 1015.6 1015.5 0.0
19/01:30pm - - - - - S 20 26 11 14 1015.5 - 0.0
19/01:00pm - - - - - S 19 24 10 13 1015.6 1015.5 0.0
19/12:30pm - - - - - SSW 20 28 11 15 1016.0 - 0.0
19/12:00pm - - - - - SW 20 26 11 14 1016.3 1016.2 0.0
19/11:30am - - - - - SSW 19 26 10 14 1016.5 - 0.0
19/11:00am - - - - - SW 13 20 7 11 1017.0 1016.9 0.0
19/10:30am - - - - - SW 15 20 8 11 1017.3 - 0.0
19/10:00am - - - - - SSW 15 20 8 11 1017.6 1017.5 0.0
19/09:30am - - - - - SSW 17 24 9 13 1017.9 - 0.0
19/09:00am - - - - - SW 11 15 6 8 1017.8 1017.7 0.0
19/08:30am - - - - - WSW 2 6 1 3 1017.8 - 0.0
19/08:00am - - - - - CALM 0 2 0 1 1017.8 1017.7 0.0
19/07:30am - - - - - NW 4 6 2 3 1017.7 - 0.0
19/07:00am - - - - - NW 6 7 3 4 1017.5 1017.4 0.0
19/06:30am - - - - - NNW 6 7 3 4 1017.3 - 0.0
19/06:00am - - - - - NNW 4 4 2 2 1017.2 1017.1 0.0
19/05:30am - - - - - NW 6 6 3 3 1017.1 - 0.0
19/05:00am - - - - - WNW 6 7 3 4 1017.2 1017.1 0.0
19/04:30am - - - - - N 4 6 2 3 1016.9 - 0.0
19/04:00am - - - - - NE 4 6 2 3 1016.9 1016.8 0.0
19/03:30am - - - - - NE 6 6 3 3 1016.8 - 0.0
19/03:00am - - - - - CALM 0 0 0 0 1017.0 1016.9 0.0
19/02:30am - - - - - NE 4 6 2 3 1017.3 - 0.0
19/02:00am - - - - - E 6 7 3 4 1017.7 1017.6 0.0
19/01:30am - - - - - ESE 7 11 4 6 1018.0 - 0.0
19/01:00am - - - - - ESE 6 7 3 4 1018.4 1018.3 0.0
19/12:30am - - - - - E 7 9 4 5 1018.6 - 0.0
19/12:00am - - - - - E 2 4 1 2 1018.8 1018.7 0.0
 
Date/Time
WST
Temp
°C
App
Temp
°C
Dew
Point
Rel
Hum
%
Delta-T
°C
Wind Press
QNH
hPa
Press
MSL
hPa
Rain
since 9 am
mm
Dir
 
Spd
km/h
Gust
km/h
Spd
kts
Gust
kts
18/11:30pm - - - - - NE 2 4 1 2 1018.7 - 0.0
18/11:00pm - - - - - NNE 4 6 2 3 1019.0 1018.9 0.0
18/10:30pm - - - - - NE 7 7 4 4 1019.3 - 0.0
18/10:00pm - - - - - ENE 6 7 3 4 1019.7 1019.6 0.0
18/09:30pm - - - - - NE 7 9 4 5 1019.6 - 0.0
18/09:00pm - - - - - NE 4 7 2 4 1019.9 1019.8 0.0
18/08:30pm - - - - - NE 7 9 4 5 1019.7 - 0.0
18/08:00pm - - - - - ENE 7 13 4 7 1019.9 1019.8 0.0

Other Formats:

Comma delimited format used in spreadsheet applications
http://www.bom.gov.au/fwo/IDW60801/IDW60801.95635.axf

JavaScript Object Notation format (JSON) in row-major order
http://www.bom.gov.au/fwo/IDW60801/IDW60801.95635.json